Terminal Aerodrome Forecast
Issued by NWS

Home | Current Version | Previous Version | Text Only | Print | Product List | Glossary On
Versions: 1 2 3 4 5 6 7 8 9 10 11 12 13 14 15
000
FTUS45 KFGZ 230500
TAFGCN
TAF
KGCN 230539Z 2306/2406 VRB02KT P6SM FEW250
      TEMPO 2309/2313 5SM FU
     FM231830 22008KT P6SM FEW250
     FM240100 VRB02KT P6SM FEW250=

USA.gov is the U.S. government's official web portal to all federal, state and local government web resources and services.